TSB weather

Tsumeb Airport
Tsumeb, Oshikoto Region, Namibia

Public forecast

Using degrees Celsius for public forecast. Weather courtesy of forecast.io.

Current aviation weather report (METAR) for Tsumeb Airport

Report is more than 6 hours old.

Retrieved 2015/08/08 08:00 UTC (4 years ago):

FYTM 080800Z AUTO 07003G13KT //// // ////// 20/M00 Q1027

Closest aviation forecast (TAF) to Tsumeb Airport

Forecast is more than 12 hours old.

Closest forecast is Grootfontein Airport, 30.1 nm (55.7 km) SE. Retrieved 2014/11/15 15:00 UTC (5 years ago):

TAF FYGF 151400Z 1515/1524 08010KT 9999 FEW035CB SCT040TCU BECMG 1517/1519 SCT030 BKN090